createdAt,value
2019-01-18T00:01:54.763Z,8.90
2019-01-18T00:04:25.008Z,14.20
2019-01-18T00:06:55.179Z,9.43
2019-01-18T00:09:25.781Z,10.07
2019-01-18T00:11:55.933Z,13.07
2019-01-18T00:14:26.145Z,11.27
2019-01-18T00:16:56.381Z,9.00
2019-01-18T00:19:26.848Z,11.80
2019-01-18T00:21:57.153Z,12.10
2019-01-18T00:24:27.627Z,12.03
2019-01-18T00:26:58.317Z,7.00
2019-01-18T00:29:29.707Z,7.43
2019-01-18T00:32:00.123Z,13.80
2019-01-18T00:34:30.304Z,10.53
2019-01-18T00:37:00.550Z,8.07
2019-01-18T00:39:31.504Z,7.53
2019-01-18T00:42:01.729Z,11.07
2019-01-18T00:44:31.871Z,14.13
2019-01-18T00:47:02.289Z,10.70
2019-01-18T00:49:32.807Z,9.87
2019-01-18T00:52:02.994Z,7.03
2019-01-18T00:54:33.151Z,10.00
2019-01-18T00:57:03.795Z,11.20
2019-01-18T00:59:36.353Z,13.93
2019-01-18T01:02:06.366Z,9.00
2019-01-18T01:04:36.562Z,11.53
2019-01-18T01:07:07.431Z,13.27
2019-01-18T01:09:37.777Z,9.93
2019-01-18T01:12:09.422Z,9.20
2019-01-18T01:14:39.666Z,11.40
2019-01-18T01:17:09.900Z,12.67
2019-01-18T01:19:40.220Z,11.80
2019-01-18T01:22:10.684Z,12.70
2019-01-18T01:24:40.991Z,11.30
2019-01-18T01:27:12.055Z,13.30
2019-01-18T01:29:43.441Z,12.00
2019-01-18T01:32:13.727Z,10.23
2019-01-18T01:34:44.364Z,8.77
2019-01-18T01:37:14.795Z,14.00
2019-01-18T01:39:45.292Z,11.33
2019-01-18T01:42:15.415Z,9.93
2019-01-18T01:44:45.511Z,9.67
2019-01-18T01:47:16.027Z,6.47
2019-01-18T01:49:46.643Z,11.00
2019-01-18T01:52:16.852Z,9.30
2019-01-18T01:54:47.515Z,12.50
2019-01-18T01:57:17.728Z,9.97
2019-01-18T01:59:49.876Z,8.53
2019-01-18T02:02:20.486Z,8.17
2019-01-18T02:04:50.709Z,8.13
2019-01-18T02:07:20.906Z,9.20
2019-01-18T02:09:51.456Z,13.73
2019-01-18T02:12:21.668Z,10.43
2019-01-18T02:14:52.199Z,11.57
2019-01-18T02:17:22.549Z,16.90
2019-01-18T02:19:53.099Z,12.60
2019-01-18T02:22:23.371Z,7.87
2019-01-18T02:24:56.278Z,11.97
2019-01-18T02:27:26.751Z,10.90
2019-01-18T02:29:58.614Z,8.63
2019-01-18T02:32:30.133Z,8.60
2019-01-18T02:35:00.690Z,7.73
2019-01-18T02:37:31.653Z,11.20
2019-01-18T02:40:02.019Z,9.57
2019-01-18T02:42:32.174Z,14.33
2019-01-18T02:45:02.373Z,16.20
2019-01-18T02:47:32.770Z,12.23
2019-01-18T02:50:03.017Z,8.70
2019-01-18T02:52:33.221Z,19.47
2019-01-18T02:55:03.356Z,11.73
2019-01-18T02:57:35.929Z,11.20
2019-01-18T03:00:10.136Z,11.30
2019-01-18T03:02:40.349Z,8.40
2019-01-18T03:05:11.469Z,11.40
2019-01-18T03:07:41.882Z,11.73
2019-01-18T03:10:18.924Z,6.40
2019-01-18T03:12:49.121Z,10.80
2019-01-18T03:15:19.424Z,13.33
2019-01-18T03:17:51.125Z,14.13
2019-01-18T03:20:21.359Z,11.90
2019-01-18T03:22:51.578Z,11.23
2019-01-18T03:25:31.214Z,11.70
2019-01-18T03:28:01.414Z,5.00
2019-01-18T03:30:31.613Z,6.67
2019-01-18T03:33:02.196Z,6.63
2019-01-18T03:35:32.418Z,8.33
2019-01-18T03:38:02.612Z,6.47
2019-01-18T03:40:32.848Z,8.33
2019-01-18T03:43:03.600Z,6.30
2019-01-18T03:45:33.840Z,6.73
2019-01-18T03:48:04.473Z,6.17
2019-01-18T03:50:35.008Z,11.83
2019-01-18T03:53:05.459Z,8.93
2019-01-18T03:55:35.732Z,12.13
2019-01-18T03:58:05.998Z,5.53
2019-01-18T04:00:36.499Z,7.23
2019-01-18T04:03:06.713Z,7.23
2019-01-18T04:05:36.925Z,5.13
2019-01-18T04:08:07.178Z,6.93
2019-01-18T04:10:37.586Z,8.63
2019-01-18T04:13:08.141Z,6.00
2019-01-18T04:15:38.740Z,8.20
2019-01-18T04:18:09.252Z,10.43
2019-01-18T04:20:39.535Z,9.23
2019-01-18T04:23:09.797Z,9.37
2019-01-18T04:25:40.335Z,8.10
2019-01-18T04:28:10.953Z,9.57
2019-01-18T04:30:41.150Z,7.37
2019-01-18T04:33:11.695Z,10.83
2019-01-18T04:35:41.865Z,7.67
2019-01-18T04:38:12.059Z,9.40
2019-01-18T04:40:42.247Z,8.43
2019-01-18T04:43:12.439Z,7.47
2019-01-18T04:45:42.665Z,5.03
2019-01-18T04:48:13.190Z,8.50
2019-01-18T04:50:43.866Z,13.47
2019-01-18T04:53:14.386Z,7.97
2019-01-18T04:55:44.971Z,8.80
2019-01-18T04:58:15.201Z,11.27
2019-01-18T05:00:45.407Z,9.40
2019-01-18T05:03:15.658Z,9.23
2019-01-18T05:05:45.891Z,9.50
2019-01-18T05:08:16.023Z,7.00
2019-01-18T05:10:46.242Z,7.67
2019-01-18T05:13:16.418Z,7.80
2019-01-18T05:15:46.618Z,8.07
2019-01-18T05:18:16.774Z,11.93
2019-01-18T05:20:47.085Z,12.13
2019-01-18T05:23:17.319Z,8.40
2019-01-18T05:25:47.876Z,10.07
2019-01-18T05:28:18.482Z,9.13
2019-01-18T05:30:49.143Z,9.63
2019-01-18T05:33:19.372Z,10.67
2019-01-18T05:35:49.599Z,14.73
2019-01-18T05:38:20.160Z,10.63
2019-01-18T05:40:50.332Z,9.00
2019-01-18T05:43:20.722Z,10.00
2019-01-18T05:45:51.194Z,10.33
2019-01-18T05:48:21.616Z,9.07
2019-01-18T05:50:51.824Z,9.40
2019-01-18T05:53:22.530Z,6.03
2019-01-18T05:55:52.938Z,7.73
2019-01-18T05:58:23.183Z,9.23
2019-01-18T06:01:18.132Z,11.30
2019-01-18T06:03:48.389Z,7.20
2019-01-18T06:06:18.562Z,9.53
2019-01-18T06:08:49.569Z,10.70
2019-01-18T06:11:19.773Z,7.33
2019-01-18T06:13:49.968Z,9.73
2019-01-18T06:16:20.554Z,10.47
2019-01-18T06:18:51.307Z,7.20
2019-01-18T06:21:21.630Z,9.17
2019-01-18T06:23:51.854Z,11.00
2019-01-18T06:26:22.011Z,12.37
2019-01-18T06:28:52.456Z,8.63
2019-01-18T06:31:22.944Z,11.40
2019-01-18T06:33:53.182Z,7.77
2019-01-18T06:36:23.401Z,9.73
2019-01-18T06:38:53.657Z,11.17
2019-01-18T06:41:33.069Z,10.23
2019-01-18T06:44:03.316Z,10.93
2019-01-18T06:46:33.804Z,9.10
2019-01-18T06:49:05.439Z,17.03
2019-01-18T06:51:36.074Z,9.33
2019-01-18T06:54:06.636Z,12.30
2019-01-18T06:56:37.521Z,9.07
2019-01-18T06:59:08.463Z,11.37
2019-01-18T07:01:38.695Z,7.90
2019-01-18T07:04:08.819Z,7.77
2019-01-18T07:06:39.077Z,16.77
2019-01-18T07:09:09.811Z,13.10
2019-01-18T07:11:40.333Z,9.33
2019-01-18T07:14:10.489Z,10.77
2019-01-18T07:16:41.073Z,10.57
2019-01-18T07:19:11.579Z,26.53
2019-01-18T07:21:41.851Z,11.13
2019-01-18T07:24:12.082Z,13.17
2019-01-18T07:26:42.439Z,11.37
2019-01-18T07:29:12.888Z,17.57
2019-01-18T07:31:43.209Z,10.47
2019-01-18T07:34:13.580Z,14.20
2019-01-18T07:36:44.347Z,11.70
2019-01-18T07:39:22.166Z,15.47
2019-01-18T07:41:47.874Z,14.60
2019-01-18T07:44:18.219Z,11.83
2019-01-18T07:46:48.485Z,13.63
2019-01-18T07:49:18.871Z,18.67
2019-01-18T07:51:49.684Z,16.80
2019-01-18T07:54:20.307Z,14.67
2019-01-18T07:56:50.612Z,18.67
2019-01-18T07:59:20.970Z,18.90
2019-01-18T08:01:51.350Z,15.27
2019-01-18T08:04:21.716Z,15.13
2019-01-18T08:06:52.074Z,10.57
2019-01-18T08:09:22.773Z,13.50
2019-01-18T08:11:53.536Z,13.87
2019-01-18T08:14:24.525Z,13.03
2019-01-18T08:16:54.774Z,15.87
2019-01-18T08:19:25.141Z,8.43
2019-01-18T08:21:55.522Z,9.77
2019-01-18T08:24:26.443Z,11.60
2019-01-18T08:26:57.027Z,13.70
2019-01-18T08:29:27.401Z,10.80
2019-01-18T08:31:58.296Z,13.53
2019-01-18T08:34:30.583Z,13.30
2019-01-18T08:37:00.974Z,14.07
2019-01-18T08:39:31.384Z,12.80
2019-01-18T08:42:04.446Z,13.77
2019-01-18T08:44:35.892Z,15.37
2019-01-18T08:47:06.157Z,14.23
2019-01-18T08:49:38.172Z,15.53
2019-01-18T08:52:08.709Z,15.40
2019-01-18T08:54:41.384Z,17.13
2019-01-18T08:57:11.815Z,15.70
2019-01-18T08:59:42.179Z,23.83
2019-01-18T09:02:15.031Z,16.77
2019-01-18T09:04:45.977Z,15.77
2019-01-18T09:07:16.347Z,11.60
2019-01-18T09:09:46.714Z,12.77
2019-01-18T09:12:17.163Z,11.03
2019-01-18T09:14:49.206Z,18.20
2019-01-18T09:17:19.520Z,22.40
2019-01-18T09:19:50.218Z,16.20
2019-01-18T09:22:20.491Z,13.53
2019-01-18T09:24:50.793Z,10.40
2019-01-18T09:27:21.251Z,17.90
2019-01-18T09:29:53.707Z,10.37
2019-01-18T09:32:27.237Z,11.47
2019-01-18T09:34:59.535Z,9.63
2019-01-18T09:37:29.856Z,6.83
2019-01-18T09:40:00.491Z,10.17
2019-01-18T09:42:30.850Z,9.17
2019-01-18T09:45:01.240Z,12.50
2019-01-18T09:47:31.676Z,13.33
2019-01-18T09:50:02.045Z,11.57
2019-01-18T09:52:32.360Z,10.57
2019-01-18T09:55:02.650Z,10.87
2019-01-18T09:57:33.821Z,15.47
2019-01-18T10:00:05.851Z,19.93
2019-01-18T10:02:38.056Z,18.97
2019-01-18T10:05:09.589Z,22.57
2019-01-18T10:07:40.110Z,15.30
2019-01-18T10:10:13.561Z,19.17
2019-01-18T10:12:44.335Z,22.90
2019-01-18T10:15:20.111Z,15.85
2019-01-18T10:17:50.518Z,15.93
2019-01-18T10:20:20.889Z,20.47
2019-01-18T10:22:51.428Z,15.10
2019-01-18T10:25:22.003Z,24.43
2019-01-18T10:27:52.406Z,20.73
2019-01-18T10:30:24.586Z,18.43
2019-01-18T10:32:58.338Z,19.50
2019-01-18T10:35:30.389Z,17.90
2019-01-18T10:38:01.196Z,14.33
2019-01-18T10:40:33.952Z,19.23
2019-01-18T10:43:04.505Z,18.17
2019-01-18T10:45:37.246Z,18.83
2019-01-18T10:48:07.646Z,18.17
2019-01-18T10:50:38.360Z,12.80
2019-01-18T10:53:10.182Z,19.23
2019-01-18T10:55:44.345Z,15.27
2019-01-18T10:58:14.681Z,14.80
2019-01-18T11:00:45.505Z,18.40
2019-01-18T11:03:16.310Z,21.47
2019-01-18T11:05:46.641Z,18.23
2019-01-18T11:08:17.567Z,21.43
2019-01-18T11:10:48.223Z,20.67
2019-01-18T11:13:18.687Z,19.23
2019-01-18T11:15:49.546Z,18.13
2019-01-18T11:18:19.898Z,15.87
2019-01-18T11:20:56.617Z,17.13
2019-01-18T11:23:27.109Z,17.13
2019-01-18T11:25:57.510Z,14.63
2019-01-18T11:28:27.917Z,12.23
2019-01-18T11:30:58.734Z,20.20
2019-01-18T11:33:29.487Z,12.63
2019-01-18T11:35:59.853Z,13.07
2019-01-18T11:38:30.173Z,13.20
2019-01-18T11:41:00.561Z,17.10
2019-01-18T11:43:30.867Z,18.73
2019-01-18T11:46:01.306Z,14.80
2019-01-18T11:48:31.865Z,17.93
2019-01-18T11:51:02.198Z,19.03
2019-01-18T11:53:32.591Z,23.30
2019-01-18T11:56:03.043Z,19.20
2019-01-18T11:58:33.324Z,16.80
2019-01-18T12:01:03.970Z,18.55
2019-01-18T12:03:34.362Z,13.97
2019-01-18T12:06:05.602Z,15.50
2019-01-18T12:08:35.927Z,16.83
2019-01-18T12:11:06.342Z,13.97
2019-01-18T12:13:37.114Z,14.60
2019-01-18T12:16:07.746Z,15.23
2019-01-18T12:18:38.187Z,15.60
2019-01-18T12:21:08.983Z,14.30
2019-01-18T12:23:39.293Z,16.73
2019-01-18T12:26:11.835Z,15.40
2019-01-18T12:28:42.210Z,12.40
2019-01-18T12:31:14.674Z,12.13
2019-01-18T12:33:45.060Z,14.63
2019-01-18T12:36:15.868Z,12.00
2019-01-18T12:38:46.278Z,14.00
2019-01-18T12:41:17.464Z,16.17
2019-01-18T12:43:47.909Z,14.10
2019-01-18T12:46:18.366Z,13.17
2019-01-18T12:48:48.683Z,14.17
2019-01-18T12:51:19.084Z,12.27
2019-01-18T12:53:51.897Z,15.30
2019-01-18T12:56:22.374Z,12.13
2019-01-18T12:58:56.448Z,14.03
2019-01-18T13:01:25.076Z,14.33
2019-01-18T13:03:55.570Z,12.10
2019-01-18T13:06:26.232Z,12.83
2019-01-18T13:08:56.960Z,15.93
2019-01-18T13:11:27.419Z,16.80
2019-01-18T13:13:58.028Z,16.77
2019-01-18T13:16:33.871Z,15.13
2019-01-18T13:19:09.761Z,14.25
2019-01-18T13:21:40.002Z,14.93
2019-01-18T13:24:10.314Z,14.73
2019-01-18T13:26:40.748Z,14.80
2019-01-18T13:29:11.205Z,14.23
2019-01-18T13:31:42.907Z,13.87
2019-01-18T13:34:13.117Z,14.40
2019-01-18T13:36:43.470Z,14.00
2019-01-18T13:39:17.696Z,14.67
2019-01-18T13:41:49.056Z,16.57
2019-01-18T13:44:19.833Z,14.60
2019-01-18T13:46:50.223Z,17.37
2019-01-18T13:49:20.793Z,10.97
2019-01-18T13:51:51.127Z,17.37
2019-01-18T13:54:21.803Z,14.77
2019-01-18T13:56:52.062Z,12.43
2019-01-18T13:59:22.535Z,16.40
2019-01-18T14:01:55.424Z,15.20
2019-01-18T14:04:25.803Z,14.87
2019-01-18T14:06:56.348Z,11.37
2019-01-18T14:09:26.779Z,16.87
2019-01-18T14:11:57.166Z,14.47
2019-01-18T14:14:27.552Z,13.90
2019-01-18T14:16:59.209Z,11.73
2019-01-18T14:19:30.325Z,13.07
2019-01-18T14:22:00.758Z,15.30
2019-01-18T14:24:31.184Z,13.87
2019-01-18T14:27:01.986Z,14.30
2019-01-18T14:29:32.445Z,18.70
2019-01-18T14:32:05.232Z,16.63
2019-01-18T14:34:35.548Z,14.33
2019-01-18T14:37:05.921Z,17.43
2019-01-18T14:39:36.348Z,18.73
2019-01-18T14:42:06.783Z,19.80
2019-01-18T14:44:38.012Z,21.17
2019-01-18T14:47:08.324Z,18.77
2019-01-18T14:49:38.830Z,18.53
2019-01-18T14:52:09.904Z,17.47
2019-01-18T14:54:40.736Z,14.83
2019-01-18T14:57:11.272Z,15.90
2019-01-18T14:59:43.388Z,22.07
2019-01-18T15:02:13.767Z,20.37
2019-01-18T15:04:48.461Z,15.13
2019-01-18T15:07:18.878Z,15.53
2019-01-18T15:09:49.416Z,15.57
2019-01-18T15:12:19.740Z,16.00
2019-01-18T15:14:50.153Z,14.93
2019-01-18T15:17:21.104Z,20.43
2019-01-18T15:19:51.450Z,14.67
2019-01-18T15:22:22.243Z,15.37
2019-01-18T15:24:52.507Z,14.90
2019-01-18T15:27:22.923Z,21.87
2019-01-18T15:29:53.509Z,20.27
2019-01-18T15:32:23.796Z,21.73
2019-01-18T15:34:55.043Z,22.53
2019-01-18T15:37:25.418Z,20.23
2019-01-18T15:39:59.840Z,19.83
2019-01-18T15:42:30.483Z,20.77
2019-01-18T15:45:01.253Z,25.10
2019-01-18T15:47:32.173Z,20.20
2019-01-18T15:50:02.500Z,23.77
2019-01-18T15:52:33.167Z,19.47
2019-01-18T15:55:03.952Z,18.87
2019-01-18T15:57:36.731Z,22.00
2019-01-18T16:00:11.075Z,17.77
2019-01-18T16:02:44.194Z,22.27
2019-01-18T16:05:15.001Z,23.35
2019-01-18T16:07:45.438Z,22.40
2019-01-18T16:10:16.677Z,20.77
2019-01-18T16:12:47.027Z,20.40
2019-01-18T16:15:18.087Z,22.20
2019-01-18T16:17:49.353Z,20.73
2019-01-18T16:20:20.928Z,26.13
2019-01-18T16:22:51.970Z,20.47
2019-01-18T16:25:29.364Z,23.30
2019-01-18T16:27:59.460Z,22.73
2019-01-18T16:30:29.934Z,19.83
2019-01-18T16:33:00.390Z,27.47
2019-01-18T16:35:30.742Z,23.80
2019-01-18T16:38:01.544Z,24.50
2019-01-18T16:40:33.198Z,25.03
2019-01-18T16:43:13.779Z,27.73
2019-01-18T16:45:44.438Z,27.73
2019-01-18T16:48:15.039Z,25.70
2019-01-18T16:50:45.278Z,31.80
2019-01-18T16:53:15.552Z,35.67
2019-01-18T16:55:45.981Z,31.70
2019-01-18T16:58:16.230Z,35.60
2019-01-18T17:00:47.696Z,33.37
2019-01-18T17:03:17.924Z,31.73
2019-01-18T17:05:48.182Z,31.10
2019-01-18T17:08:18.371Z,31.83
2019-01-18T17:10:48.666Z,34.70
2019-01-18T17:13:19.405Z,35.00
2019-01-18T17:15:49.652Z,37.37
2019-01-18T17:18:21.464Z,35.07
2019-01-18T17:20:51.908Z,36.23
2019-01-18T17:23:22.145Z,42.57
2019-01-18T17:25:52.385Z,47.20
2019-01-18T17:28:23.058Z,37.00
2019-01-18T17:30:53.230Z,37.27
2019-01-18T17:33:23.476Z,35.23
2019-01-18T17:36:03.843Z,35.90
2019-01-18T17:39:33.626Z,39.37
2019-01-18T17:42:47.026Z,38.60
2019-01-18T17:46:01.077Z,38.13
2019-01-18T17:49:11.280Z,37.40
2019-01-18T17:52:04.812Z,41.73
2019-01-18T17:55:00.295Z,42.17
2019-01-18T17:58:04.559Z,42.17
2019-01-18T18:01:29.701Z,43.13
2019-01-18T18:04:55.339Z,46.27
2019-01-18T18:07:44.956Z,36.43
2019-01-18T18:10:45.219Z,40.50
2019-01-18T18:13:47.717Z,39.90
2019-01-18T18:17:03.439Z,48.80
2019-01-18T18:20:22.582Z,41.37
2019-01-18T18:23:35.484Z,42.30
2019-01-18T18:26:37.234Z,38.80
2019-01-18T18:29:44.337Z,37.87
2019-01-18T18:32:49.015Z,43.70
2019-01-18T18:35:54.729Z,48.77
2019-01-18T18:39:17.789Z,39.73
2019-01-18T18:42:47.464Z,40.97
2019-01-18T18:45:38.351Z,39.90
2019-01-18T18:48:30.120Z,40.60
2019-01-18T18:51:49.555Z,43.77
2019-01-18T18:54:31.788Z,43.07
2019-01-18T18:57:43.441Z,42.03
2019-01-18T19:00:47.481Z,40.13
2019-01-18T19:03:49.376Z,44.37
2019-01-18T19:07:04.030Z,42.30
2019-01-18T19:10:00.174Z,41.87
2019-01-18T19:13:09.954Z,42.17
2019-01-18T19:16:33.944Z,35.40
2019-01-18T19:19:24.265Z,40.77
2019-01-18T19:22:21.469Z,42.70
2019-01-18T19:25:14.498Z,38.73
2019-01-18T19:28:19.300Z,40.40
2019-01-18T19:31:26.226Z,38.23
2019-01-18T19:34:38.406Z,38.40
2019-01-18T19:37:46.874Z,40.97
2019-01-18T19:40:29.798Z,39.47
2019-01-18T19:43:36.000Z,37.37
2019-01-18T19:46:43.192Z,35.83
2019-01-18T19:49:37.764Z,29.07
2019-01-18T19:52:25.823Z,30.20
2019-01-18T19:55:40.197Z,33.80
2019-01-18T19:58:54.639Z,33.80
2019-01-18T20:01:44.423Z,33.67
2019-01-18T20:04:42.860Z,33.03
2019-01-18T20:07:45.551Z,31.53
2019-01-18T20:10:58.783Z,33.87
2019-01-18T20:14:09.870Z,34.47
2019-01-18T20:17:26.367Z,35.67
2019-01-18T20:20:06.419Z,33.10
2019-01-18T20:23:13.502Z,32.90
2019-01-18T20:26:42.830Z,33.97
2019-01-18T20:30:03.524Z,40.37
2019-01-18T20:33:24.531Z,36.10
2019-01-18T20:36:39.219Z,44.20
2019-01-18T20:39:42.964Z,42.47
2019-01-18T20:42:42.039Z,40.50
2019-01-18T20:46:02.418Z,38.90
2019-01-18T20:48:58.209Z,38.13
2019-01-18T20:52:04.607Z,45.50
2019-01-18T20:55:21.776Z,39.07
2019-01-18T20:58:58.176Z,39.93
2019-01-18T21:01:58.528Z,39.90
2019-01-18T21:04:55.247Z,39.53
2019-01-18T21:07:53.223Z,38.27
2019-01-18T21:10:33.280Z,39.27
2019-01-18T21:13:34.853Z,36.40
2019-01-18T21:16:36.608Z,41.57
2019-01-18T21:19:46.442Z,39.40
2019-01-18T21:22:58.725Z,43.40
2019-01-18T21:25:59.649Z,40.83
2019-01-18T21:29:02.966Z,35.37
2019-01-18T21:32:14.416Z,37.90
2019-01-18T21:34:59.906Z,42.53
2019-01-18T21:38:13.815Z,40.83
2019-01-18T21:41:15.000Z,43.60
2019-01-18T21:44:20.122Z,39.63
2019-01-18T21:48:02.145Z,44.03
2019-01-18T21:51:14.413Z,37.47
2019-01-18T21:53:50.059Z,32.57
2019-01-18T21:57:02.418Z,37.07
2019-01-18T22:00:04.925Z,30.33
2019-01-18T22:02:53.246Z,37.13
2019-01-18T22:06:14.630Z,33.53
2019-01-18T22:09:22.518Z,33.67
2019-01-18T22:12:39.288Z,34.87
2019-01-18T22:15:27.571Z,36.03
2019-01-18T22:18:23.211Z,31.90
2019-01-18T22:21:52.838Z,36.07
2019-01-18T22:25:06.387Z,27.17
2019-01-18T22:27:54.929Z,31.50
2019-01-18T22:31:11.967Z,31.47
2019-01-18T22:34:05.308Z,36.23
2019-01-18T22:36:53.202Z,30.53
2019-01-18T22:40:10.321Z,31.93
2019-01-18T22:43:30.696Z,28.70
2019-01-18T22:46:50.948Z,29.37
2019-01-18T22:49:55.771Z,29.27
2019-01-18T22:53:04.379Z,32.53
2019-01-18T22:55:55.092Z,31.00
2019-01-18T22:58:56.991Z,32.83
2019-01-18T23:01:53.526Z,32.87
2019-01-18T23:05:04.097Z,41.37
2019-01-18T23:08:24.946Z,33.57
2019-01-18T23:11:29.984Z,30.40
2019-01-18T23:14:41.108Z,34.23
2019-01-18T23:17:58.140Z,33.23
2019-01-18T23:21:15.661Z,32.90
2019-01-18T23:24:17.630Z,31.63
2019-01-18T23:27:19.460Z,33.73
2019-01-18T23:30:06.348Z,35.20
2019-01-18T23:33:18.234Z,30.10
2019-01-18T23:36:20.155Z,33.83
2019-01-18T23:39:33.206Z,29.73
2019-01-18T23:42:40.498Z,31.77
2019-01-18T23:45:41.200Z,34.23
2019-01-18T23:48:54.915Z,32.57
2019-01-18T23:52:00.242Z,36.90
2019-01-18T23:54:54.945Z,37.27
2019-01-18T23:58:11.572Z,32.87
